Terminal Aerodrome Forecast
Issued by NWS Charleston, WV

Current Version | Previous Version | Text Only | Print | Product List | Glossary Off
Versions: 1 2 3 4 5 6 7 8 9 10 11 12 13 14 15 16 17 18 19 20 21 22 23 24 25 26 27 28

000
FTUS41 KRLX 212202 AAA
TAFBKW
TAF AMD
KBKW 212202Z 2122/2218 31007KT 2SM -RA BR OVC005
     FM212300 32009KT P6SM BKN010
     FM220500 29005KT P6SM BKN045
     FM220800 29005KT P6SM SCT110
     FM221400 30009KT P6SM FEW250=

USA.gov is the U.S. government's official web portal to all federal, state and local government web resources and services.